createdAt,value
2022-12-13T00:02:52.673Z,39.28
2022-12-13T00:05:57.197Z,40.70
2022-12-13T00:09:02.216Z,39.65
2022-12-13T00:12:06.590Z,40.63
2022-12-13T00:15:11.517Z,38.45
2022-12-13T00:18:16.154Z,39.75
2022-12-13T00:21:25.104Z,38.08
2022-12-13T00:24:29.387Z,38.75
2022-12-13T00:27:33.720Z,40.15
2022-12-13T00:30:38.394Z,39.40
2022-12-13T00:33:42.779Z,40.03
2022-12-13T00:36:47.446Z,38.25
2022-12-13T00:39:52.282Z,39.33
2022-12-13T00:42:56.748Z,40.17
2022-12-13T00:46:01.257Z,41.67
2022-12-13T00:49:06.146Z,41.92
2022-12-13T00:52:10.391Z,38.58
2022-12-13T00:55:14.948Z,41.22
2022-12-13T00:58:19.737Z,40.38
2022-12-13T01:01:28.533Z,39.30
2022-12-13T01:04:33.266Z,39.30
2022-12-13T01:07:38.962Z,40.55
2022-12-13T01:10:47.704Z,42.45
2022-12-13T01:13:52.533Z,40.13
2022-12-13T01:16:57.115Z,41.58
2022-12-13T01:20:02.655Z,41.90
2022-12-13T01:23:07.383Z,40.40
2022-12-13T01:26:21.936Z,40.17
2022-12-13T01:29:27.321Z,40.42
2022-12-13T01:32:31.699Z,39.72
2022-12-13T01:35:36.219Z,42.28
2022-12-13T01:38:40.704Z,42.80
2022-12-13T01:41:49.002Z,40.33
2022-12-13T01:44:56.237Z,39.45
2022-12-13T01:48:06.024Z,39.50
2022-12-13T01:51:14.891Z,40.88
2022-12-13T01:54:33.421Z,37.63
2022-12-13T01:57:45.682Z,39.45
2022-12-13T02:00:51.538Z,38.92
2022-12-13T02:03:56.201Z,40.85
2022-12-13T02:07:00.752Z,38.30
2022-12-13T02:10:07.268Z,40.65
2022-12-13T02:13:11.746Z,40.50
2022-12-13T02:16:53.041Z,38.50
2022-12-13T02:20:42.921Z,39.33
2022-12-13T02:24:15.735Z,37.50
2022-12-13T02:28:31.872Z,40.08
2022-12-13T02:31:55.637Z,39.83
2022-12-13T02:35:31.921Z,37.63
2022-12-13T02:38:56.845Z,38.00
2022-12-13T02:42:29.366Z,36.70
2022-12-13T02:45:55.107Z,37.13
2022-12-13T02:49:00.693Z,35.45
2022-12-13T02:52:09.035Z,37.88
2022-12-13T02:55:17.963Z,37.72
2022-12-13T02:58:34.322Z,37.30
2022-12-13T03:02:21.741Z,37.10
2022-12-13T03:06:33.901Z,35.90
2022-12-13T03:09:54.606Z,36.13
2022-12-13T03:13:37.453Z,36.45
2022-12-13T03:16:46.166Z,35.08
2022-12-13T03:19:54.040Z,33.65
2022-12-13T03:22:59.317Z,31.55
2022-12-13T03:26:15.078Z,32.25
2022-12-13T03:29:24.104Z,28.83
2022-12-13T03:32:29.353Z,31.25
2022-12-13T03:35:44.830Z,31.00
2022-12-13T03:38:53.386Z,29.55
2022-12-13T03:41:57.586Z,28.50
2022-12-13T03:45:02.009Z,30.30
2022-12-13T03:48:06.262Z,29.17
2022-12-13T03:51:10.620Z,29.17
2022-12-13T03:54:14.858Z,29.30
2022-12-13T03:57:19.226Z,28.75
2022-12-13T04:00:23.927Z,28.65
2022-12-13T04:03:28.687Z,29.10
2022-12-13T04:06:33.671Z,28.65
2022-12-13T04:09:40.597Z,31.15
2022-12-13T04:13:03.515Z,29.05
2022-12-13T04:16:08.444Z,21.73
2022-12-13T04:19:12.768Z,27.08
2022-12-13T04:22:23.279Z,27.73
2022-12-13T04:25:29.473Z,30.08
2022-12-13T04:28:33.693Z,29.42
2022-12-13T04:31:38.577Z,32.05
2022-12-13T04:34:43.186Z,33.55
2022-12-13T04:37:47.667Z,32.80
2022-12-13T04:40:52.061Z,33.72
2022-12-13T04:43:56.525Z,32.95
2022-12-13T04:47:02.665Z,28.83
2022-12-13T04:50:07.993Z,29.17
2022-12-13T04:53:16.165Z,28.60
2022-12-13T04:56:20.594Z,27.10
2022-12-13T04:59:25.569Z,30.00
2022-12-13T05:02:30.308Z,28.33
2022-12-13T05:05:34.499Z,28.40
2022-12-13T05:08:39.483Z,28.83
2022-12-13T05:11:45.699Z,30.67
2022-12-13T05:14:54.115Z,30.90
2022-12-13T05:18:09.465Z,32.22
2022-12-13T05:21:13.961Z,33.28
2022-12-13T05:24:18.072Z,36.17
2022-12-13T05:27:23.949Z,35.08
2022-12-13T05:30:30.432Z,35.25
2022-12-13T05:33:34.810Z,37.72
2022-12-13T05:36:39.164Z,39.13
2022-12-13T05:39:43.491Z,38.20
2022-12-13T05:42:47.773Z,37.10
2022-12-13T05:45:51.969Z,38.50
2022-12-13T05:48:56.767Z,36.30
2022-12-13T05:52:02.009Z,39.03
2022-12-13T05:55:07.039Z,38.88
2022-12-13T05:58:13.554Z,36.72
2022-12-13T06:01:18.138Z,36.38
2022-12-13T06:04:23.518Z,37.30
2022-12-13T06:07:28.373Z,37.47
2022-12-13T06:10:34.671Z,36.40
2022-12-13T06:13:43.698Z,35.35
2022-12-13T06:16:48.518Z,34.55
2022-12-13T06:19:54.082Z,38.30
2022-12-13T06:22:59.581Z,37.35
2022-12-13T06:26:07.871Z,35.25
2022-12-13T06:29:12.654Z,35.47
2022-12-13T06:32:27.413Z,36.35
2022-12-13T06:35:35.234Z,36.10
2022-12-13T06:38:43.549Z,34.78
2022-12-13T06:41:48.526Z,35.17
2022-12-13T06:44:56.265Z,36.83
2022-12-13T06:48:01.125Z,39.63
2022-12-13T06:51:06.903Z,35.60
2022-12-13T06:54:11.313Z,36.92
2022-12-13T06:57:15.997Z,35.75
2022-12-13T07:00:22.321Z,35.75
2022-12-13T07:03:27.968Z,34.55
2022-12-13T07:06:32.281Z,36.15
2022-12-13T07:09:37.106Z,34.20
2022-12-13T07:12:41.806Z,35.80
2022-12-13T07:15:46.917Z,36.20
2022-12-13T07:19:01.330Z,37.22
2022-12-13T07:22:06.407Z,36.22
2022-12-13T07:25:28.325Z,35.05
2022-12-13T07:28:38.122Z,27.83
2022-12-13T07:31:42.630Z,35.53
2022-12-13T07:34:50.935Z,38.45
2022-12-13T07:37:55.485Z,37.60
2022-12-13T07:40:59.970Z,35.78
2022-12-13T07:44:05.214Z,35.85
2022-12-13T07:47:09.726Z,34.72
2022-12-13T07:50:25.126Z,37.22
2022-12-13T07:53:33.398Z,36.45
2022-12-13T07:56:37.887Z,38.15
2022-12-13T07:59:41.900Z,37.55
2022-12-13T08:02:46.782Z,37.13
2022-12-13T08:06:06.991Z,41.83
2022-12-13T08:09:11.273Z,64.30
2022-12-13T08:12:15.635Z,45.13
2022-12-13T08:15:27.612Z,38.05
2022-12-13T08:18:31.939Z,37.72
2022-12-13T08:21:58.813Z,35.95
2022-12-13T08:25:07.201Z,37.92
2022-12-13T08:28:11.519Z,35.63
2022-12-13T08:31:15.957Z,34.92
2022-12-13T08:34:20.192Z,35.78
2022-12-13T08:37:24.404Z,35.97
2022-12-13T08:40:29.461Z,36.00
2022-12-13T08:43:33.830Z,39.72
2022-12-13T08:46:38.215Z,33.38
2022-12-13T08:49:42.400Z,36.05
2022-12-13T08:52:46.766Z,35.83
2022-12-13T08:55:51.253Z,33.90
2022-12-13T08:58:55.369Z,35.35
2022-12-13T09:02:04.798Z,35.40
2022-12-13T09:05:11.301Z,39.63
2022-12-13T09:08:23.611Z,36.78
2022-12-13T09:11:34.979Z,39.55
2022-12-13T09:14:45.732Z,35.17
2022-12-13T09:17:52.781Z,34.40
2022-12-13T09:21:10.908Z,34.72
2022-12-13T09:24:24.481Z,35.13
2022-12-13T09:27:29.163Z,34.42
2022-12-13T09:30:34.790Z,35.63
2022-12-13T09:33:41.400Z,33.42
2022-12-13T09:36:46.523Z,35.42
2022-12-13T09:39:55.259Z,34.08
2022-12-13T09:43:12.604Z,33.92
2022-12-13T09:46:44.291Z,33.42
2022-12-13T09:49:52.513Z,33.53
2022-12-13T09:53:01.222Z,35.42
2022-12-13T09:56:11.016Z,36.58
2022-12-13T09:59:15.655Z,35.97
2022-12-13T10:02:33.434Z,33.47
2022-12-13T10:05:40.415Z,35.00
2022-12-13T10:08:50.581Z,36.85
2022-12-13T10:12:02.198Z,37.63
2022-12-13T10:15:09.088Z,38.08
2022-12-13T10:18:22.609Z,38.47
2022-12-13T10:21:39.774Z,36.78
2022-12-13T10:25:06.140Z,38.88
2022-12-13T10:28:10.234Z,38.65
2022-12-13T10:31:20.403Z,39.33
2022-12-13T10:34:29.885Z,36.38
2022-12-13T10:37:34.432Z,38.80
2022-12-13T10:40:46.629Z,38.42
2022-12-13T10:44:25.359Z,40.15
2022-12-13T10:47:29.793Z,38.55
2022-12-13T10:50:34.120Z,38.65
2022-12-13T10:53:49.520Z,39.55
2022-12-13T10:57:00.126Z,41.95
2022-12-13T11:00:37.902Z,41.05
2022-12-13T11:03:42.431Z,42.00
2022-12-13T11:06:48.447Z,43.38
2022-12-13T11:09:53.159Z,42.03
2022-12-13T11:13:03.739Z,40.58
2022-12-13T11:16:24.688Z,41.13
2022-12-13T11:19:45.429Z,40.90
2022-12-13T11:22:50.712Z,41.05
2022-12-13T11:26:10.570Z,42.00
2022-12-13T11:29:36.960Z,41.47
2022-12-13T11:33:11.755Z,41.20
2022-12-13T11:36:41.218Z,37.40
2022-12-13T11:40:16.936Z,40.42
2022-12-13T11:43:41.384Z,38.53
2022-12-13T11:46:58.393Z,39.50
2022-12-13T11:50:17.722Z,39.25
2022-12-13T11:53:39.868Z,40.25
2022-12-13T11:56:45.592Z,37.60
2022-12-13T12:00:02.380Z,39.05
2022-12-13T12:03:40.953Z,38.70
2022-12-13T12:07:31.780Z,38.08
2022-12-13T12:10:49.982Z,38.88
2022-12-13T12:14:39.948Z,38.05
2022-12-13T12:17:46.843Z,38.58
2022-12-13T12:21:08.208Z,37.40
2022-12-13T12:25:01.228Z,37.70
2022-12-13T12:29:01.536Z,40.08
2022-12-13T12:32:56.107Z,38.63
2022-12-13T12:36:38.579Z,40.67
2022-12-13T12:40:18.316Z,40.63
2022-12-13T12:43:33.358Z,40.83
2022-12-13T12:47:46.708Z,42.15
2022-12-13T12:50:53.975Z,44.55
2022-12-13T12:54:36.358Z,42.17
2022-12-13T12:58:09.283Z,37.58
2022-12-13T13:01:47.999Z,31.55
2022-12-13T13:05:03.127Z,39.90
2022-12-13T13:08:20.338Z,44.00
2022-12-13T13:11:28.817Z,44.97
2022-12-13T13:14:39.028Z,45.95
2022-12-13T13:17:43.222Z,43.60
2022-12-13T13:21:25.863Z,46.33
2022-12-13T13:24:32.487Z,45.28
2022-12-13T13:27:47.531Z,42.78
2022-12-13T13:31:08.984Z,45.58
2022-12-13T13:34:36.476Z,46.42
2022-12-13T13:37:48.454Z,47.00
2022-12-13T13:40:52.816Z,43.38
2022-12-13T13:44:01.939Z,46.05
2022-12-13T13:47:28.686Z,46.63
2022-12-13T13:50:57.466Z,46.92
2022-12-13T13:54:53.303Z,44.30
2022-12-13T13:58:37.169Z,44.67
2022-12-13T14:02:01.591Z,32.23
2022-12-13T14:06:18.364Z,45.25
2022-12-13T14:09:50.255Z,43.60
2022-12-13T14:13:50.034Z,45.08
2022-12-13T14:17:51.202Z,45.85
2022-12-13T14:21:03.941Z,46.78
2022-12-13T14:24:52.576Z,46.00
2022-12-13T14:28:41.615Z,47.10
2022-12-13T14:31:48.705Z,47.88
2022-12-13T14:34:54.279Z,48.00
2022-12-13T14:38:05.501Z,44.75
2022-12-13T14:41:21.274Z,46.42
2022-12-13T14:44:35.181Z,48.75
2022-12-13T14:47:43.932Z,46.63
2022-12-13T14:50:49.181Z,48.80
2022-12-13T14:53:54.825Z,45.92
2022-12-13T14:57:03.499Z,47.55
2022-12-13T15:00:35.410Z,45.78
2022-12-13T15:03:39.998Z,45.42
2022-12-13T15:06:48.307Z,46.33
2022-12-13T15:10:00.907Z,44.97
2022-12-13T15:13:05.578Z,44.42
2022-12-13T15:16:28.137Z,43.40
2022-12-13T15:19:37.551Z,44.65
2022-12-13T15:22:45.386Z,42.63
2022-12-13T15:26:28.337Z,44.00
2022-12-13T15:29:35.741Z,42.47
2022-12-13T15:33:16.756Z,43.70
2022-12-13T15:36:26.954Z,44.42
2022-12-13T15:39:41.182Z,46.13
2022-12-13T15:42:53.080Z,43.38
2022-12-13T15:45:57.929Z,44.80
2022-12-13T15:49:03.341Z,44.58
2022-12-13T15:52:14.136Z,43.25
2022-12-13T15:55:28.324Z,45.33
2022-12-13T15:58:37.523Z,45.95
2022-12-13T16:01:42.185Z,44.03
2022-12-13T16:04:47.919Z,45.13
2022-12-13T16:07:56.708Z,43.78
2022-12-13T16:11:02.238Z,42.60
2022-12-13T16:14:31.602Z,44.58
2022-12-13T16:17:36.172Z,43.28
2022-12-13T16:20:40.879Z,43.03
2022-12-13T16:23:48.671Z,43.45
2022-12-13T16:26:53.891Z,42.88
2022-12-13T16:29:58.928Z,44.50
2022-12-13T16:33:18.828Z,42.72
2022-12-13T16:36:28.888Z,42.85
2022-12-13T16:39:33.210Z,44.08
2022-12-13T16:42:37.531Z,42.78
2022-12-13T16:45:47.747Z,45.08
2022-12-13T16:48:53.781Z,44.15
2022-12-13T16:51:58.551Z,42.05
2022-12-13T16:55:03.291Z,39.67
2022-12-13T16:58:16.414Z,41.03
2022-12-13T17:01:21.300Z,43.53
2022-12-13T17:04:29.072Z,42.25
2022-12-13T17:07:35.481Z,43.88
2022-12-13T17:10:42.173Z,45.95
2022-12-13T17:13:49.686Z,41.00
2022-12-13T17:16:54.939Z,42.65
2022-12-13T17:20:00.018Z,40.85
2022-12-13T17:23:06.550Z,42.28
2022-12-13T17:26:13.856Z,41.78
2022-12-13T17:29:21.448Z,43.28
2022-12-13T17:32:28.458Z,42.58
2022-12-13T17:35:33.357Z,42.70
2022-12-13T17:38:41.314Z,43.72
2022-12-13T17:41:54.421Z,42.97
2022-12-13T17:45:00.205Z,43.13
2022-12-13T17:48:05.316Z,44.47
2022-12-13T17:51:11.843Z,43.33
2022-12-13T17:54:16.031Z,45.00
2022-12-13T17:57:20.972Z,43.72
2022-12-13T18:00:25.429Z,44.30
2022-12-13T18:03:31.042Z,43.35
2022-12-13T18:06:36.601Z,45.20
2022-12-13T18:09:41.376Z,45.78
2022-12-13T18:12:45.497Z,47.15
2022-12-13T18:15:52.286Z,47.53
2022-12-13T18:18:57.488Z,47.78
2022-12-13T18:22:28.591Z,46.88
2022-12-13T18:25:33.685Z,47.40
2022-12-13T18:28:39.190Z,46.17
2022-12-13T18:31:43.907Z,45.50
2022-12-13T18:34:48.423Z,48.83
2022-12-13T18:37:59.463Z,48.95
2022-12-13T18:41:14.834Z,51.80
2022-12-13T18:44:19.809Z,49.67
2022-12-13T18:47:27.582Z,50.38
2022-12-13T18:50:34.188Z,52.20
2022-12-13T18:53:40.285Z,51.38
2022-12-13T18:56:44.872Z,55.33
2022-12-13T18:59:54.263Z,51.85
2022-12-13T19:03:00.272Z,55.33
2022-12-13T19:06:10.684Z,52.60
2022-12-13T19:09:15.131Z,53.03
2022-12-13T19:12:19.510Z,56.70
2022-12-13T19:15:23.889Z,56.70
2022-12-13T19:18:28.411Z,54.83
2022-12-13T19:21:32.885Z,56.50
2022-12-13T19:24:37.419Z,50.88
2022-12-13T19:27:41.781Z,52.38
2022-12-13T19:30:47.758Z,50.92
2022-12-13T19:33:52.639Z,49.47
2022-12-13T19:37:00.345Z,50.97
2022-12-13T19:40:09.903Z,49.78
2022-12-13T19:43:15.312Z,50.38
2022-12-13T19:46:20.292Z,51.58
2022-12-13T19:49:25.149Z,50.22
2022-12-13T19:52:29.549Z,49.25
2022-12-13T19:55:34.070Z,47.30
2022-12-13T19:58:39.731Z,47.08
2022-12-13T20:01:46.229Z,47.63
2022-12-13T20:04:51.315Z,52.33
2022-12-13T20:07:58.024Z,49.13
2022-12-13T20:11:13.180Z,50.03
2022-12-13T20:14:17.774Z,46.38
2022-12-13T20:17:22.422Z,46.88
2022-12-13T20:20:40.900Z,44.08
2022-12-13T20:23:51.570Z,44.85
2022-12-13T20:26:58.119Z,46.83
2022-12-13T20:30:03.811Z,42.45
2022-12-13T20:33:08.529Z,44.25
2022-12-13T20:36:24.804Z,43.05
2022-12-13T20:39:30.619Z,44.80
2022-12-13T20:42:35.243Z,41.85
2022-12-13T20:45:39.777Z,43.45
2022-12-13T20:48:48.948Z,42.17
2022-12-13T20:51:53.461Z,43.58
2022-12-13T20:54:57.862Z,44.72
2022-12-13T20:58:02.157Z,43.78
2022-12-13T21:01:07.077Z,43.28
2022-12-13T21:04:11.942Z,41.38
2022-12-13T21:07:36.492Z,42.88
2022-12-13T21:10:41.248Z,42.03
2022-12-13T21:13:47.265Z,44.55
2022-12-13T21:17:01.850Z,44.58
2022-12-13T21:20:06.753Z,43.05
2022-12-13T21:23:11.550Z,40.67
2022-12-13T21:26:17.069Z,44.08
2022-12-13T21:29:21.326Z,46.63
2022-12-13T21:32:25.476Z,44.17
2022-12-13T21:35:30.011Z,43.63
2022-12-13T21:38:34.409Z,43.47
2022-12-13T21:41:39.809Z,44.28
2022-12-13T21:44:44.190Z,40.15
2022-12-13T21:47:48.511Z,41.42
2022-12-13T21:50:53.111Z,40.95
2022-12-13T21:53:59.407Z,40.40
2022-12-13T21:57:22.518Z,40.03
2022-12-13T22:00:27.164Z,30.83
2022-12-13T22:03:31.546Z,39.38
2022-12-13T22:06:35.996Z,37.97
2022-12-13T22:09:40.751Z,38.13
2022-12-13T22:12:45.247Z,36.90
2022-12-13T22:15:49.362Z,37.53
2022-12-13T22:18:54.944Z,36.30
2022-12-13T22:21:59.624Z,37.17
2022-12-13T22:25:04.390Z,36.55
2022-12-13T22:28:08.676Z,37.33
2022-12-13T22:31:12.826Z,37.17
2022-12-13T22:34:18.100Z,37.13
2022-12-13T22:37:23.875Z,37.40
2022-12-13T22:40:28.230Z,38.35
2022-12-13T22:43:36.402Z,38.33
2022-12-13T22:46:41.962Z,36.17
2022-12-13T22:49:48.522Z,37.67
2022-12-13T22:52:53.358Z,35.80
2022-12-13T22:56:11.646Z,35.97
2022-12-13T22:59:16.521Z,35.70
2022-12-13T23:02:21.093Z,37.22
2022-12-13T23:05:25.733Z,35.42
2022-12-13T23:08:30.182Z,36.60
2022-12-13T23:11:53.269Z,35.50
2022-12-13T23:14:57.652Z,24.92
2022-12-13T23:18:02.454Z,36.22
2022-12-13T23:21:06.804Z,34.63
2022-12-13T23:24:11.753Z,33.35
2022-12-13T23:27:16.235Z,34.47
2022-12-13T23:30:20.577Z,34.38
2022-12-13T23:33:25.199Z,32.70
2022-12-13T23:36:30.752Z,33.55
2022-12-13T23:39:35.318Z,34.33
2022-12-13T23:42:39.436Z,32.20
2022-12-13T23:45:43.856Z,32.35
2022-12-13T23:48:48.617Z,33.72
2022-12-13T23:51:54.179Z,31.10
2022-12-13T23:54:58.841Z,32.45
2022-12-13T23:58:02.993Z,30.02
